createdAt,value
2022-07-29T00:02:37.386Z,27.84
2022-07-29T00:05:05.574Z,27.86
2022-07-29T00:07:33.807Z,27.85
2022-07-29T00:10:02.054Z,27.8
2022-07-29T00:12:30.296Z,27.76
2022-07-29T00:15:35.681Z,27.68
2022-07-29T00:18:03.868Z,27.67
2022-07-29T00:20:32.141Z,27.7
2022-07-29T00:23:37.409Z,27.8
2022-07-29T00:26:05.705Z,27.76
2022-07-29T00:28:33.968Z,27.64
2022-07-29T00:31:39.238Z,27.61
2022-07-29T00:33:59.290Z,27.58
2022-07-29T00:36:27.542Z,27.6
2022-07-29T00:39:32.856Z,27.54
2022-07-29T00:42:01.087Z,27.51
2022-07-29T00:44:29.337Z,27.42
2022-07-29T00:47:34.679Z,27.47
2022-07-29T00:50:02.932Z,27.46
2022-07-29T00:52:31.195Z,27.46
2022-07-29T00:55:36.491Z,27.37
2022-07-29T00:58:04.731Z,27.31
2022-07-29T01:00:33.011Z,27.17
2022-07-29T01:03:01.207Z,27.15
2022-07-29T01:05:47.994Z,27.12
2022-07-29T01:08:34.789Z,27.21
2022-07-29T01:11:03.010Z,27.21
2022-07-29T01:13:31.268Z,27.23
2022-07-29T01:16:36.726Z,27.17
2022-07-29T01:19:04.798Z,27.15
2022-07-29T01:21:33.043Z,27.16
2022-07-29T01:24:01.360Z,27.09
2022-07-29T01:26:29.560Z,27
2022-07-29T01:29:35.896Z,26.99
2022-07-29T01:31:58.872Z,27.03
2022-07-29T01:34:23.238Z,26.97
2022-07-29T01:37:28.475Z,26.88
2022-07-29T01:40:33.803Z,26.83
2022-07-29T01:43:02.066Z,26.81
2022-07-29T01:45:30.310Z,26.91
2022-07-29T01:48:35.797Z,26.84
2022-07-29T01:51:03.890Z,26.78
2022-07-29T01:53:34.894Z,26.61
2022-07-29T01:56:37.405Z,26.52
2022-07-29T01:59:06.132Z,26.55
2022-07-29T02:01:34.069Z,26.61
2022-07-29T02:04:02.190Z,26.58
2022-07-29T02:06:30.379Z,26.43
2022-07-29T02:09:35.721Z,26.52
2022-07-29T02:12:04.009Z,26.49
2022-07-29T02:14:32.234Z,26.5
2022-07-29T02:17:38.793Z,26.44
2022-07-29T02:20:05.768Z,26.44
2022-07-29T02:22:34.069Z,26.4
2022-07-29T02:25:02.849Z,26.36
2022-07-29T02:27:30.499Z,26.26
2022-07-29T02:30:35.818Z,26.32
2022-07-29T02:32:55.900Z,26.33
2022-07-29T02:35:24.134Z,26.43
2022-07-29T02:38:29.420Z,26.41
2022-07-29T02:41:34.784Z,26.27
2022-07-29T02:44:02.998Z,26.29
2022-07-29T02:46:31.238Z,26.33
2022-07-29T02:49:36.565Z,26.28
2022-07-29T02:52:04.830Z,26.28
2022-07-29T02:54:33.082Z,26.18
2022-07-29T02:57:01.313Z,26.14
2022-07-29T02:59:29.574Z,26.12
2022-07-29T03:02:34.873Z,26.07
2022-07-29T03:05:03.162Z,26.08
2022-07-29T03:07:31.350Z,26.08
2022-07-29T03:10:36.682Z,25.97
2022-07-29T03:13:04.944Z,25.96
2022-07-29T03:15:33.148Z,25.92
2022-07-29T03:18:38.481Z,25.82
2022-07-29T03:21:06.732Z,25.75
2022-07-29T03:23:36.716Z,25.72
2022-07-29T03:26:03.254Z,25.72
2022-07-29T03:28:31.470Z,25.72
2022-07-29T03:31:36.827Z,25.91
2022-07-29T03:33:56.848Z,25.85
2022-07-29T03:36:25.088Z,25.71
2022-07-29T03:39:30.357Z,25.68
2022-07-29T03:42:35.731Z,25.75
2022-07-29T03:45:04.020Z,25.73
2022-07-29T03:47:43.625Z,25.58
2022-07-29T03:50:37.490Z,25.6
2022-07-29T03:53:05.815Z,25.53
2022-07-29T03:55:34.011Z,25.39
2022-07-29T03:58:02.253Z,25.4
2022-07-29T04:03:35.950Z,25.28
2022-07-29T04:06:04.070Z,25.24
2022-07-29T04:08:32.343Z,25.09
2022-07-29T04:11:56.945Z,25.12
2022-07-29T04:14:05.886Z,25.17
2022-07-29T04:16:34.280Z,25.2
2022-07-29T04:19:02.366Z,25.21
2022-07-29T04:21:30.607Z,25.12
2022-07-29T04:24:35.952Z,25.08
2022-07-29T04:27:04.252Z,25.08
2022-07-29T04:29:32.433Z,25.08
2022-07-29T04:32:29.552Z,25.06
2022-07-29T04:35:36.637Z,24.95
2022-07-29T04:38:35.062Z,24.96
2022-07-29T04:40:31.317Z,25.04
2022-07-29T04:43:36.711Z,25.02
2022-07-29T04:46:04.916Z,24.96
2022-07-29T04:48:33.178Z,24.84
2022-07-29T04:51:01.366Z,24.8
2022-07-29T04:53:29.633Z,24.88
2022-07-29T04:56:35.116Z,24.8
2022-07-29T04:59:03.227Z,24.74
2022-07-29T05:01:31.568Z,24.7
2022-07-29T05:04:36.767Z,24.77
2022-07-29T05:07:05.013Z,24.78
2022-07-29T05:09:33.282Z,24.74
2022-07-29T05:12:01.499Z,24.7
2022-07-29T05:14:29.731Z,24.89
2022-07-29T05:17:35.065Z,24.97
2022-07-29T05:20:03.298Z,24.94
2022-07-29T05:22:31.542Z,24.96
2022-07-29T05:25:40.697Z,25
2022-07-29T05:28:05.141Z,24.98
2022-07-29T05:30:33.382Z,24.99
2022-07-29T05:33:38.667Z,25.03
2022-07-29T05:36:00.495Z,25.06
2022-07-29T05:38:59.393Z,25.07
2022-07-29T05:41:32.352Z,25.06
2022-07-29T05:44:37.585Z,25.16
2022-07-29T05:47:05.841Z,25.17
2022-07-29T05:49:34.111Z,25.23
2022-07-29T05:52:02.330Z,25.27
2022-07-29T05:54:30.569Z,25.21
2022-07-29T05:57:35.914Z,25.46
2022-07-29T06:00:04.172Z,25.53
2022-07-29T06:02:32.397Z,25.52
2022-07-29T06:05:00.717Z,25.49
2022-07-29T06:07:28.868Z,25.62
2022-07-29T06:10:34.573Z,25.75
2022-07-29T06:13:02.476Z,25.75
2022-07-29T06:15:30.744Z,25.64
2022-07-29T06:18:36.043Z,25.74
2022-07-29T06:21:04.316Z,25.79
2022-07-29T06:23:32.494Z,25.94
2022-07-29T06:26:39.938Z,26.04
2022-07-29T06:29:06.065Z,26.01
2022-07-29T06:31:34.338Z,26.16
2022-07-29T06:34:31.402Z,26.11
2022-07-29T06:37:36.777Z,26.09
2022-07-29T06:40:05.009Z,26.09
2022-07-29T06:42:33.250Z,26.32
2022-07-29T06:45:03.946Z,26.37
2022-07-29T06:48:06.818Z,26.43
2022-07-29T06:50:35.046Z,26.5
2022-07-29T06:53:03.335Z,26.51
2022-07-29T06:55:31.570Z,26.6
2022-07-29T06:58:36.883Z,26.63
2022-07-29T07:01:05.135Z,26.62
2022-07-29T07:03:33.345Z,26.71
2022-07-29T07:06:01.621Z,26.71
2022-07-29T07:08:29.832Z,26.81
2022-07-29T07:11:35.123Z,26.82
2022-07-29T07:14:04.332Z,26.84
2022-07-29T07:16:31.746Z,26.99
2022-07-29T07:19:36.973Z,27.09
2022-07-29T07:22:05.210Z,27.13
2022-07-29T07:24:33.525Z,27.19
2022-07-29T07:27:01.720Z,30.15
2022-07-29T07:30:07.033Z,27.28
2022-07-29T07:32:35.247Z,27.28
2022-07-29T07:35:03.507Z,27.29
2022-07-29T07:37:31.773Z,27.32
2022-07-29T07:40:37.061Z,27.25
2022-07-29T07:43:05.302Z,27.3
2022-07-29T07:45:33.672Z,27.29
2022-07-29T07:47:53.695Z,27.25
2022-07-29T07:50:22.009Z,27.29
2022-07-29T07:53:27.176Z,27.31
2022-07-29T07:56:35.241Z,27.28
2022-07-29T07:59:37.809Z,27.27
2022-07-29T08:02:06.129Z,27.29
2022-07-29T08:04:34.317Z,27.33
2022-07-29T08:07:02.547Z,27.34
2022-07-29T08:09:30.967Z,27.27
2022-07-29T08:12:36.108Z,27.41
2022-07-29T08:15:04.376Z,27.44
2022-07-29T08:17:35.470Z,27.5
2022-07-29T08:20:37.960Z,27.59
2022-07-29T08:23:06.160Z,27.63
2022-07-29T08:25:34.694Z,27.72
2022-07-29T08:28:02.652Z,27.73
2022-07-29T08:30:30.912Z,27.8
2022-07-29T08:33:36.263Z,27.85
2022-07-29T08:36:04.473Z,27.87
2022-07-29T08:38:32.716Z,27.95
2022-07-29T08:42:42.754Z,27.93
2022-07-29T08:44:29.662Z,27.88
2022-07-29T08:47:20.008Z,27.96
2022-07-29T08:50:25.352Z,28.01
2022-07-29T08:53:30.610Z,28.03
2022-07-29T08:55:58.886Z,28.04
2022-07-29T08:58:27.098Z,28.08
2022-07-29T09:00:55.740Z,28.11
2022-07-29T09:03:23.696Z,28.24
2022-07-29T09:06:28.912Z,28.28
2022-07-29T09:08:57.190Z,28.33
2022-07-29T09:11:25.475Z,28.36
2022-07-29T09:14:30.713Z,28.37
2022-07-29T09:16:59.028Z,28.37
2022-07-29T09:19:27.240Z,28.32
2022-07-29T09:21:55.472Z,27.3
2022-07-29T09:25:00.793Z,28.3
2022-07-29T09:27:29.008Z,28.36
2022-07-29T09:29:57.294Z,28.37
2022-07-29T09:32:25.547Z,28.37
2022-07-29T09:35:30.854Z,28.44
2022-07-29T09:37:59.095Z,28.46
2022-07-29T09:40:27.354Z,28.58
2022-07-29T09:42:55.627Z,28.63
2022-07-29T09:45:23.821Z,28.8
2022-07-29T09:48:20.969Z,28.8
2022-07-29T09:51:37.927Z,28.81
2022-07-29T09:53:54.513Z,28.84
2022-07-29T09:56:38.595Z,28.9
2022-07-29T09:59:28.090Z,28.94
2022-07-29T10:02:28.673Z,28.95
2022-07-29T10:04:24.547Z,28.94
2022-07-29T10:07:29.899Z,29.06
2022-07-29T10:09:58.103Z,29.06
2022-07-29T10:12:26.396Z,29.07
2022-07-29T10:15:31.709Z,29.08
2022-07-29T10:17:59.919Z,29.08
2022-07-29T10:20:28.197Z,29.13
2022-07-29T10:22:56.454Z,28.29
2022-07-29T10:26:01.753Z,29.21
2022-07-29T10:28:29.978Z,29.29
2022-07-29T10:30:58.284Z,29.3
2022-07-29T10:33:26.505Z,29.38
2022-07-29T10:35:54.795Z,29.41
2022-07-29T10:38:24.696Z,29.44
2022-07-29T10:41:29.147Z,29.47
2022-07-29T10:43:56.563Z,29.21
2022-07-29T10:46:25.489Z,29.54
2022-07-29T10:49:58.964Z,29.57
2022-07-29T10:52:30.216Z,29.64
2022-07-29T10:54:55.449Z,29.55
2022-07-29T10:58:00.814Z,29.68
2022-07-29T11:00:29.072Z,29.72
2022-07-29T11:02:57.365Z,29.74
2022-07-29T11:05:32.362Z,29.81
2022-07-29T11:08:30.825Z,29.86
2022-07-29T11:10:59.071Z,29.86
2022-07-29T11:15:55.609Z,29.92
2022-07-29T11:18:23.879Z,29.96
2022-07-29T11:21:36.023Z,30.01
2022-07-29T11:23:57.377Z,30.01
2022-07-29T11:26:25.646Z,30.03
2022-07-29T11:29:30.957Z,30.05
2022-07-29T11:31:59.494Z,30.05
2022-07-29T11:34:27.786Z,30.05
2022-07-29T11:36:55.940Z,30.06
2022-07-29T11:39:23.943Z,30.09
2022-07-29T11:42:32.224Z,30.13
2022-07-29T11:44:57.545Z,30.13
2022-07-29T11:47:54.671Z,30.15
2022-07-29T11:50:22.886Z,30.19
2022-07-29T11:53:28.855Z,30.21
2022-07-29T11:55:56.426Z,30.23
2022-07-29T11:58:24.922Z,30.29
2022-07-29T12:01:30.025Z,30.32
2022-07-29T12:03:58.291Z,30.33
2022-07-29T12:06:26.455Z,30.3
2022-07-29T12:09:40.083Z,30.3
2022-07-29T12:12:05.053Z,30.3
2022-07-29T12:14:28.294Z,30.31
2022-07-29T12:16:56.586Z,29.66
2022-07-29T12:19:24.807Z,30.31
2022-07-29T12:23:07.203Z,30.36
2022-07-29T12:27:28.639Z,30.45
2022-07-29T12:29:54.856Z,30.47
2022-07-29T12:32:23.136Z,30.46
2022-07-29T12:35:28.447Z,30.45
2022-07-29T12:37:56.633Z,30.47
2022-07-29T12:40:24.883Z,30.49
2022-07-29T12:44:07.301Z,30.51
2022-07-29T12:48:18.493Z,30.53
2022-07-29T12:51:23.821Z,30.56
2022-07-29T12:54:29.162Z,30.61
2022-07-29T12:56:57.348Z,30.63
2022-07-29T12:59:25.644Z,30.72
2022-07-29T13:03:08.366Z,30.79
2022-07-29T13:06:13.339Z,31.09
2022-07-29T13:09:18.669Z,31.45
2022-07-29T13:12:23.940Z,31.59
2022-07-29T13:15:29.296Z,31.65
2022-07-29T13:17:57.526Z,31.66
2022-07-29T13:20:25.708Z,31.65
2022-07-29T13:23:31.060Z,31.64
2022-07-29T13:25:59.291Z,31.66
2022-07-29T13:28:27.551Z,31.69
2022-07-29T13:30:55.878Z,31.74
2022-07-29T13:33:24.065Z,31.94
2022-07-29T13:36:29.326Z,32.03
2022-07-29T13:38:57.595Z,32.05
2022-07-29T13:41:25.895Z,32.14
2022-07-29T13:44:31.163Z,32.16
2022-07-29T13:46:59.659Z,32.15
2022-07-29T13:49:19.474Z,32.28
2022-07-29T13:52:24.769Z,32.47
2022-07-29T13:55:30.116Z,32.61
2022-07-29T13:57:58.333Z,32.64
2022-07-29T14:00:26.560Z,32.79
2022-07-29T14:03:31.899Z,32.96
2022-07-29T14:06:00.186Z,33.02
2022-07-29T14:08:28.414Z,33.12
2022-07-29T14:10:56.624Z,30.49
2022-07-29T14:13:26.325Z,33.34
2022-07-29T14:17:07.779Z,33.58
2022-07-29T14:20:12.589Z,33.7
2022-07-29T14:23:17.890Z,33.84
2022-07-29T14:26:24.188Z,33.88
2022-07-29T14:29:36.945Z,33.8
2022-07-29T14:31:57.065Z,33.78
2022-07-29T14:34:24.983Z,33.7
2022-07-29T14:37:36.391Z,33.73
2022-07-29T14:39:58.583Z,33.75
2022-07-29T14:42:26.790Z,33.88
2022-07-29T14:44:55.014Z,33.86
2022-07-29T14:47:23.313Z,33.91
2022-07-29T14:50:23.255Z,34.11
2022-07-29T14:53:25.729Z,34.29
2022-07-29T14:56:36.839Z,34.47
2022-07-29T14:58:59.261Z,34.5
2022-07-29T15:01:27.593Z,34.75
2022-07-29T15:03:59.385Z,34.84
2022-07-29T15:06:24.036Z,34.99
2022-07-29T15:09:29.338Z,35
2022-07-29T15:11:57.837Z,35.02
2022-07-29T15:14:41.473Z,35.29
2022-07-29T15:17:31.142Z,35.43
2022-07-29T15:19:59.378Z,35.5
2022-07-29T15:22:27.662Z,35.63
2022-07-29T15:24:55.883Z,35.65
2022-07-29T15:27:24.135Z,36.02
2022-07-29T15:30:31.621Z,36.18
2022-07-29T15:32:57.678Z,36.22
2022-07-29T15:38:31.288Z,36.49
2022-07-29T15:40:59.528Z,36.47
2022-07-29T15:43:27.779Z,36.41
2022-07-29T15:45:56.046Z,36.37
2022-07-29T15:48:24.248Z,36.65
2022-07-29T15:51:21.352Z,36.68
2022-07-29T15:54:26.685Z,36.75
2022-07-29T15:57:32.011Z,36.66
2022-07-29T16:00:00.271Z,36.66
2022-07-29T16:02:28.489Z,36.75
2022-07-29T16:04:56.724Z,36.78
2022-07-29T16:07:24.956Z,36.87
2022-07-29T16:11:07.354Z,36.68
2022-07-29T16:14:12.633Z,36.79
2022-07-29T16:17:17.972Z,36.99
2022-07-29T16:20:23.293Z,37.16
2022-07-29T16:23:28.623Z,37
2022-07-29T16:25:59.927Z,36.93
2022-07-29T16:28:25.121Z,36.96
2022-07-29T16:31:30.448Z,37.14
2022-07-29T16:33:58.667Z,37.18
2022-07-29T16:36:26.897Z,37.07
2022-07-29T16:38:55.130Z,37
2022-07-29T16:41:23.400Z,37.16
2022-07-29T16:44:28.718Z,37
2022-07-29T16:46:59.008Z,36.89
2022-07-29T16:49:54.103Z,36.96
2022-07-29T16:52:22.304Z,37.02
2022-07-29T16:55:27.660Z,37.11
2022-07-29T17:00:24.108Z,37.2
2022-07-29T17:03:29.416Z,37
2022-07-29T17:05:57.674Z,36.97
2022-07-29T17:08:25.953Z,36.99
2022-07-29T17:11:52.089Z,37
2022-07-29T17:13:59.529Z,37
2022-07-29T17:16:27.797Z,36.73
2022-07-29T17:18:56.082Z,36.75
2022-07-29T17:21:24.257Z,36.75
2022-07-29T17:24:29.543Z,36.74
2022-07-29T17:26:58.033Z,36.68
2022-07-29T17:29:26.098Z,36.54
2022-07-29T17:32:31.405Z,36.34
2022-07-29T17:34:59.603Z,36.27
2022-07-29T17:37:27.872Z,36.07
2022-07-29T17:40:28.352Z,36.08
2022-07-29T17:42:24.361Z,35.99
2022-07-29T17:45:48.682Z,35.82
2022-07-29T17:47:57.921Z,35.75
2022-07-29T17:50:26.165Z,35.5
2022-07-29T17:53:31.446Z,35.28
2022-07-29T17:55:59.711Z,35.2
2022-07-29T17:58:27.955Z,34.98
2022-07-29T18:00:48.043Z,34.93
2022-07-29T18:03:16.327Z,34.79
2022-07-29T18:06:21.583Z,34.5
2022-07-29T18:09:26.876Z,34.32
2022-07-29T18:11:55.145Z,34.27
2022-07-29T18:14:23.367Z,34.03
2022-07-29T18:17:34.509Z,33.87
2022-07-29T18:19:56.980Z,33.81
2022-07-29T18:22:25.186Z,33.65
2022-07-29T18:25:30.489Z,33.43
2022-07-29T18:28:00.601Z,33.39
2022-07-29T18:30:26.979Z,33.24
2022-07-29T18:33:19.509Z,33.23
2022-07-29T18:35:24.529Z,33.16
2022-07-29T18:38:28.801Z,33.13
2022-07-29T18:40:57.067Z,33.11
2022-07-29T18:43:25.309Z,33.07
2022-07-29T18:46:30.654Z,33.03
2022-07-29T18:48:58.919Z,33.02
2022-07-29T18:51:27.122Z,33.02
2022-07-29T18:54:32.418Z,32.96
2022-07-29T18:57:00.938Z,32.93
2022-07-29T18:59:28.906Z,32.84
2022-07-29T19:01:49.173Z,32.86
2022-07-29T19:04:17.212Z,32.72
2022-07-29T19:07:22.533Z,32.57
2022-07-29T19:10:27.835Z,32.5
2022-07-29T19:12:56.104Z,32.49
2022-07-29T19:15:24.380Z,32.4
2022-07-29T19:18:29.628Z,32.39
2022-07-29T19:20:57.890Z,32.37
2022-07-29T19:23:26.157Z,32.29
2022-07-29T19:25:54.396Z,32.28
2022-07-29T19:28:22.669Z,32.16
2022-07-29T19:31:27.997Z,32.09
2022-07-29T19:33:56.191Z,32.09
2022-07-29T19:36:24.464Z,32.05
2022-07-29T19:39:31.863Z,31.94
2022-07-29T19:42:01.601Z,31.92
2022-07-29T19:44:26.243Z,31.85
2022-07-29T19:47:31.571Z,31.85
2022-07-29T19:49:59.834Z,31.8
2022-07-29T19:52:28.067Z,31.78
2022-07-29T19:54:56.296Z,31.78
2022-07-29T19:57:24.561Z,31.65
2022-07-29T20:00:29.875Z,31.69
2022-07-29T20:02:49.967Z,31.72
2022-07-29T20:05:18.171Z,31.55
2022-07-29T20:08:23.489Z,31.4
2022-07-29T20:11:28.796Z,31.29
2022-07-29T20:13:57.043Z,31.29
2022-07-29T20:16:25.413Z,31.26
2022-07-29T20:19:30.595Z,31.17
2022-07-29T20:21:58.848Z,31.16
2022-07-29T20:24:27.145Z,31.02
2022-07-29T20:26:55.334Z,30.97
2022-07-29T20:29:23.603Z,30.91
2022-07-29T20:32:28.888Z,30.87
2022-07-29T20:34:57.153Z,30.84
2022-07-29T20:37:25.417Z,30.83
2022-07-29T20:40:30.707Z,30.82
2022-07-29T20:42:58.959Z,30.79
2022-07-29T20:45:27.228Z,30.66
2022-07-29T20:47:55.461Z,30.62
2022-07-29T20:50:24.139Z,30.48
2022-07-29T20:53:29.001Z,30.57
2022-07-29T20:55:57.262Z,30.55
2022-07-29T20:58:25.478Z,30.47
2022-07-29T21:00:53.772Z,30.37
2022-07-29T21:05:05.282Z,30.35
2022-07-29T21:08:10.315Z,30.2
2022-07-29T21:11:15.627Z,30.13
2022-07-29T21:14:20.933Z,30.24
2022-07-29T21:17:26.276Z,30.19
2022-07-29T21:20:31.541Z,30.02
2022-07-29T21:23:00.409Z,30.02
2022-07-29T21:25:28.063Z,30.08
2022-07-29T21:27:56.341Z,30.06
2022-07-29T21:30:24.567Z,29.91
2022-07-29T21:33:29.899Z,29.89
2022-07-29T21:36:15.277Z,29.86
2022-07-29T21:38:26.356Z,29.8
2022-07-29T21:41:31.678Z,29.7
2022-07-29T21:43:59.936Z,29.67
2022-07-29T21:46:28.279Z,29.57
2022-07-29T21:48:56.440Z,29.57
2022-07-29T21:51:24.678Z,29.46
2022-07-29T21:54:29.973Z,29.59
2022-07-29T21:56:58.212Z,29.64
2022-07-29T21:59:26.483Z,29.54
2022-07-29T22:02:23.572Z,29.5
2022-07-29T22:05:28.922Z,29.43
2022-07-29T22:07:57.184Z,29.44
2022-07-29T22:10:25.373Z,29.39
2022-07-29T22:13:30.677Z,29.38
2022-07-29T22:15:59.199Z,29.3
2022-07-29T22:18:27.194Z,29.3
2022-07-29T22:21:32.531Z,29.35
2022-07-29T22:24:00.736Z,29.31
2022-07-29T22:26:29.008Z,29.12
2022-07-29T22:28:57.312Z,29.1
2022-07-29T22:31:25.520Z,29.16
2022-07-29T22:34:32.449Z,29.18
2022-07-29T22:36:59.322Z,29.24
2022-07-29T22:39:27.329Z,29.26
2022-07-29T22:41:55.557Z,29.27
2022-07-29T22:44:23.769Z,29.36
2022-07-29T22:47:39.807Z,29.4
2022-07-29T22:49:57.364Z,29.46
2022-07-29T22:52:25.664Z,29.57
2022-07-29T22:55:30.915Z,29.52
2022-07-29T22:57:59.157Z,29.57
2022-07-29T23:00:27.445Z,29.43
2022-07-29T23:02:47.680Z,29.38
2022-07-29T23:05:15.792Z,29.19
2022-07-29T23:08:21.027Z,28.97
2022-07-29T23:11:26.349Z,29
2022-07-29T23:14:31.669Z,28.99
2022-07-29T23:17:00.195Z,28.97
2022-07-29T23:19:28.164Z,28.85
2022-07-29T23:21:56.382Z,28.8
2022-07-29T23:24:24.660Z,28.57
2022-07-29T23:27:29.979Z,28.63
2022-07-29T23:29:58.216Z,28.64
2022-07-29T23:32:26.443Z,28.7
2022-07-29T23:35:31.797Z,28.64
2022-07-29T23:38:00.021Z,28.66
2022-07-29T23:40:28.283Z,28.66
2022-07-29T23:42:56.507Z,28.62
2022-07-29T23:45:30.652Z,28.37
2022-07-29T23:48:30.074Z,28.36
2022-07-29T23:50:58.317Z,28.39
2022-07-29T23:53:26.561Z,28.42
2022-07-29T23:56:31.914Z,28.31
2022-07-29T23:59:00.144Z,28.24
